Caraubas, Brazil
Current Conditions -  °F | °C
As of 8:00 AM on Saturday 01 Nov 2014 (Local Time) from SBKG Reporting Station
Scattered Clouds Scattered Clouds  
Wind Chill: 27°   Ceiling: Unl
Heat Index: 28°   Visibility: 6mi
Dew Point: 18°   Wind: 10mph
Humidity: 58%   Direction: 130°SE
Pressure: 30.06"   Gusts: NA
Location:  5.79°S, 37.56°W
Report Text: SBKG 011100Z 13009KT 9999 SCT024 27/18 Q1018
Loading
Personal Weather Stations






























Interactive Weather Map
Tropical Storm Tracking
New forecast layout! Learn more

10-Day Weather Forecast

Advertisements
Track Severe Weather on mobile